createdAt,value
2018-09-15T00:01:54.191Z,14.61
2018-09-15T00:04:22.661Z,14.59
2018-09-15T00:06:51.170Z,14.58
2018-09-15T00:09:19.925Z,14.58
2018-09-15T00:11:48.442Z,14.57
2018-09-15T00:14:17.609Z,14.54
2018-09-15T00:16:47.074Z,14.53
2018-09-15T00:19:15.518Z,14.51
2018-09-15T00:21:44.275Z,14.50
2018-09-15T00:24:12.790Z,14.50
2018-09-15T00:26:41.333Z,14.52
2018-09-15T00:29:09.813Z,14.54
2018-09-15T00:31:38.333Z,14.52
2018-09-15T00:34:07.144Z,14.53
2018-09-15T00:36:35.805Z,14.53
2018-09-15T00:39:06.922Z,14.50
2018-09-15T00:41:35.607Z,14.49
2018-09-15T00:44:04.042Z,14.50
2018-09-15T00:46:32.665Z,14.49
2018-09-15T00:49:01.388Z,14.46
2018-09-15T00:51:29.856Z,14.45
2018-09-15T00:53:58.385Z,14.42
2018-09-15T00:56:26.837Z,14.41
2018-09-15T00:58:55.305Z,14.39
2018-09-15T01:01:24.083Z,14.37
2018-09-15T01:03:52.536Z,14.36
2018-09-15T01:06:21.049Z,14.21
2018-09-15T01:08:49.813Z,14.33
2018-09-15T01:11:18.265Z,14.31
2018-09-15T01:13:46.799Z,14.29
2018-09-15T01:16:15.429Z,14.29
2018-09-15T01:18:44.950Z,14.25
2018-09-15T01:21:13.427Z,14.23
2018-09-15T01:23:42.336Z,14.22
2018-09-15T01:26:10.910Z,13.73
2018-09-15T01:28:49.169Z,14.19
2018-09-15T01:31:17.830Z,14.19
2018-09-15T01:33:46.274Z,14.19
2018-09-15T01:36:15.287Z,14.18
2018-09-15T01:38:43.762Z,14.16
2018-09-15T01:41:12.238Z,14.15
2018-09-15T01:43:40.885Z,14.15
2018-09-15T01:46:09.371Z,14.16
2018-09-15T01:48:37.838Z,14.14
2018-09-15T01:51:06.749Z,14.13
2018-09-15T01:53:35.221Z,14.13
2018-09-15T01:56:03.740Z,14.12
2018-09-15T01:58:32.249Z,14.12
2018-09-15T02:01:00.685Z,14.10
2018-09-15T02:03:29.578Z,14.11
2018-09-15T02:05:58.354Z,14.11
2018-09-15T02:08:26.891Z,14.13
2018-09-15T02:10:55.340Z,14.12
2018-09-15T02:13:24.213Z,14.10
2018-09-15T02:15:52.885Z,14.10
2018-09-15T02:18:21.338Z,14.10
2018-09-15T02:20:50.089Z,14.09
2018-09-15T02:23:18.562Z,14.09
2018-09-15T02:25:47.146Z,14.09
2018-09-15T02:28:16.137Z,14.10
2018-09-15T02:30:44.566Z,14.10
2018-09-15T02:33:13.096Z,14.09
2018-09-15T02:35:41.785Z,14.10
2018-09-15T02:38:10.214Z,14.11
2018-09-15T02:40:38.665Z,14.12
2018-09-15T02:43:07.679Z,14.12
2018-09-15T02:45:36.153Z,14.12
2018-09-15T02:48:04.599Z,14.11
2018-09-15T02:50:33.592Z,14.13
2018-09-15T02:53:02.070Z,14.14
2018-09-15T02:55:30.507Z,14.13
2018-09-15T02:57:59.017Z,14.11
2018-09-15T03:00:27.477Z,14.11
2018-09-15T03:02:55.911Z,14.11
2018-09-15T03:05:25.195Z,14.10
2018-09-15T03:07:53.761Z,14.09
2018-09-15T03:10:22.209Z,14.08
2018-09-15T03:12:50.883Z,14.06
2018-09-15T03:15:19.652Z,14.05
2018-09-15T03:17:49.155Z,14.04
2018-09-15T03:20:18.003Z,14.05
2018-09-15T03:22:46.601Z,14.03
2018-09-15T03:25:15.055Z,14.01
2018-09-15T03:27:43.878Z,14.00
2018-09-15T03:30:12.438Z,14.01
2018-09-15T03:32:40.888Z,14.02
2018-09-15T03:35:09.446Z,14.05
2018-09-15T03:37:38.164Z,14.05
2018-09-15T03:40:06.953Z,14.04
2018-09-15T03:42:36.981Z,14.04
2018-09-15T03:45:05.645Z,14.02
2018-09-15T03:47:34.083Z,14.02
2018-09-15T03:50:02.975Z,14.03
2018-09-15T03:52:31.477Z,14.04
2018-09-15T03:55:00.129Z,14.06
2018-09-15T03:57:28.817Z,14.06
2018-09-15T03:59:57.334Z,14.07
2018-09-15T04:02:25.738Z,14.07
2018-09-15T04:04:54.869Z,14.07
2018-09-15T04:07:23.660Z,14.07
2018-09-15T04:09:52.083Z,14.03
2018-09-15T04:12:20.825Z,13.97
2018-09-15T04:14:49.277Z,13.92
2018-09-15T04:17:17.825Z,13.87
2018-09-15T04:19:47.154Z,13.83
2018-09-15T04:22:15.635Z,13.80
2018-09-15T04:24:44.085Z,13.79
2018-09-15T04:27:12.607Z,13.80
2018-09-15T04:29:41.075Z,13.80
2018-09-15T04:32:09.849Z,13.80
2018-09-15T04:34:38.359Z,13.78
2018-09-15T04:37:07.001Z,13.78
2018-09-15T04:39:35.641Z,13.75
2018-09-15T04:42:04.425Z,13.41
2018-09-15T04:44:32.881Z,13.65
2018-09-15T04:47:01.365Z,13.60
2018-09-15T04:49:30.277Z,13.59
2018-09-15T04:51:58.748Z,13.58
2018-09-15T04:54:27.204Z,13.57
2018-09-15T04:56:56.529Z,13.55
2018-09-15T04:59:25.038Z,13.49
2018-09-15T05:01:53.472Z,13.43
2018-09-15T05:04:22.085Z,13.31
2018-09-15T05:06:50.949Z,13.25
2018-09-15T05:09:19.561Z,13.18
2018-09-15T05:11:48.362Z,13.14
2018-09-15T05:14:16.838Z,13.13
2018-09-15T05:16:45.269Z,13.09
2018-09-15T05:19:14.108Z,13.06
2018-09-15T05:21:43.064Z,13.02
2018-09-15T05:24:11.545Z,13.01
2018-09-15T05:26:40.187Z,13.00
2018-09-15T05:29:08.636Z,12.98
2018-09-15T05:31:37.169Z,12.96
2018-09-15T05:34:05.734Z,12.94
2018-09-15T05:36:34.272Z,12.95
2018-09-15T05:39:02.890Z,12.94
2018-09-15T05:41:31.478Z,12.92
2018-09-15T05:43:59.929Z,12.91
2018-09-15T05:46:28.350Z,12.90
2018-09-15T05:48:57.216Z,12.93
2018-09-15T05:51:25.950Z,12.92
2018-09-15T05:53:54.370Z,12.92
2018-09-15T05:56:23.253Z,12.88
2018-09-15T05:58:51.777Z,12.93
2018-09-15T06:01:20.257Z,12.95
2018-09-15T06:03:49.685Z,12.93
2018-09-15T06:06:18.517Z,12.91
2018-09-15T06:08:47.027Z,12.85
2018-09-15T06:11:15.843Z,12.81
2018-09-15T06:13:44.379Z,12.82
2018-09-15T06:16:12.789Z,12.80
2018-09-15T06:18:42.045Z,12.80
2018-09-15T06:21:10.503Z,12.80
2018-09-15T06:23:39.639Z,12.83
2018-09-15T06:26:08.471Z,12.86
2018-09-15T06:28:36.994Z,12.83
2018-09-15T06:31:05.474Z,12.86
2018-09-15T06:33:34.017Z,12.94
2018-09-15T06:36:02.488Z,12.96
2018-09-15T06:38:30.919Z,13.00
2018-09-15T06:40:59.589Z,13.02
2018-09-15T06:43:28.079Z,13.06
2018-09-15T06:45:56.578Z,13.13
2018-09-15T06:48:25.090Z,13.18
2018-09-15T06:50:53.556Z,13.20
2018-09-15T06:53:22.423Z,13.22
2018-09-15T06:55:51.091Z,13.28
2018-09-15T06:58:19.736Z,13.33
2018-09-15T07:00:49.418Z,13.37
2018-09-15T07:03:18.071Z,13.42
2018-09-15T07:05:46.607Z,13.50
2018-09-15T07:08:15.086Z,13.55
2018-09-15T07:10:43.719Z,13.67
2018-09-15T07:13:12.532Z,13.82
2018-09-15T07:15:41.596Z,13.94
2018-09-15T07:18:10.126Z,14.07
2018-09-15T07:20:38.610Z,14.20
2018-09-15T07:23:07.082Z,14.28
2018-09-15T07:25:35.913Z,14.25
2018-09-15T07:28:04.594Z,14.20
2018-09-15T07:30:33.018Z,14.12
2018-09-15T07:33:01.987Z,14.07
2018-09-15T07:35:30.469Z,14.10
2018-09-15T07:37:58.906Z,14.12
2018-09-15T07:40:27.417Z,14.10
2018-09-15T07:42:55.890Z,14.09
2018-09-15T07:45:24.336Z,14.09
2018-09-15T07:47:53.079Z,14.11
2018-09-15T07:50:21.669Z,14.18
2018-09-15T07:52:50.397Z,14.41
2018-09-15T07:55:19.169Z,14.53
2018-09-15T07:57:48.393Z,14.50
2018-09-15T08:00:16.798Z,14.49
2018-09-15T08:02:45.597Z,14.53
2018-09-15T08:05:14.100Z,14.59
2018-09-15T08:07:42.517Z,14.60
2018-09-15T08:10:11.030Z,14.66
2018-09-15T08:12:39.502Z,14.76
2018-09-15T08:15:08.105Z,14.86
2018-09-15T08:17:36.721Z,14.95
2018-09-15T08:20:05.259Z,15.09
2018-09-15T08:22:33.847Z,15.23
2018-09-15T08:25:02.537Z,15.28
2018-09-15T08:27:31.419Z,15.39
2018-09-15T08:29:59.890Z,15.56
2018-09-15T08:32:28.876Z,15.73
2018-09-15T08:34:57.607Z,15.79
2018-09-15T08:37:26.077Z,15.77
2018-09-15T08:39:54.581Z,15.71
2018-09-15T08:42:23.114Z,15.64
2018-09-15T08:44:51.700Z,15.62
2018-09-15T08:47:20.681Z,15.64
2018-09-15T08:49:49.698Z,15.66
2018-09-15T08:52:19.090Z,15.64
2018-09-15T08:54:47.881Z,15.62
2018-09-15T08:57:19.143Z,15.68
2018-09-15T08:59:47.669Z,15.78
2018-09-15T09:02:16.501Z,15.87
2018-09-15T09:04:45.781Z,15.95
2018-09-15T09:07:14.235Z,15.93
2018-09-15T09:09:42.849Z,16.01
2018-09-15T09:12:11.360Z,15.93
2018-09-15T09:14:39.784Z,15.74
2018-09-15T09:17:08.519Z,15.93
2018-09-15T09:19:36.986Z,16.01
2018-09-15T09:22:05.560Z,16.03
2018-09-15T09:24:37.783Z,16.05
2018-09-15T09:29:50.492Z,16.01
2018-09-15T09:32:21.106Z,15.96
2018-09-15T09:34:51.249Z,15.77
2018-09-15T09:37:21.211Z,15.76
2018-09-15T09:39:51.437Z,15.91
2018-09-15T09:42:21.789Z,16.06
2018-09-15T09:44:50.887Z,16.53
2018-09-15T09:47:20.985Z,17.44
2018-09-15T09:49:50.702Z,18.01
2018-09-15T09:52:21.223Z,18.55
2018-09-15T09:54:53.958Z,19.08
2018-09-15T09:57:24.105Z,18.78
2018-09-15T09:59:53.302Z,18.93
2018-09-15T10:02:23.192Z,18.53
2018-09-15T10:04:53.596Z,16.06
2018-09-15T10:07:22.267Z,18.37
2018-09-15T10:09:50.709Z,18.37
2018-09-15T10:12:19.874Z,18.23
2018-09-15T10:14:49.217Z,18.44
2018-09-15T10:17:17.803Z,18.57
2018-09-15T10:19:46.310Z,18.43
2018-09-15T10:22:15.178Z,18.31
2018-09-15T10:24:43.628Z,18.67
2018-09-15T10:27:12.165Z,19.12
2018-09-15T10:29:40.689Z,18.85
2018-09-15T10:32:09.636Z,18.80
2018-09-15T10:34:38.075Z,18.53
2018-09-15T10:37:06.803Z,18.19
2018-09-15T10:39:35.249Z,18.11
2018-09-15T10:42:03.736Z,17.73
2018-09-15T10:44:32.270Z,17.36
2018-09-15T10:47:00.705Z,17.34
2018-09-15T10:49:29.173Z,17.65
2018-09-15T10:51:57.959Z,17.89
2018-09-15T10:54:26.405Z,17.68
2018-09-15T10:56:54.953Z,17.55
2018-09-15T10:59:23.744Z,17.47
2018-09-15T11:01:52.209Z,17.35
2018-09-15T11:04:20.768Z,17.49
2018-09-15T11:06:49.404Z,17.73
2018-09-15T11:09:18.082Z,17.97
2018-09-15T11:11:46.564Z,18.05
2018-09-15T11:14:15.072Z,18.34
2018-09-15T11:16:43.507Z,18.40
2018-09-15T11:19:12.173Z,18.79
2018-09-15T11:21:40.866Z,19.43
2018-09-15T11:24:09.289Z,19.54
2018-09-15T11:26:37.890Z,19.48
2018-09-15T11:29:06.559Z,19.64
2018-09-15T11:31:34.993Z,19.66
2018-09-15T11:34:04.059Z,19.42
2018-09-15T11:36:32.509Z,19.55
2018-09-15T11:39:00.973Z,19.48
2018-09-15T11:41:29.421Z,19.31
2018-09-15T11:43:57.954Z,19.22
2018-09-15T11:46:26.387Z,19.29
2018-09-15T11:48:54.894Z,19.58
2018-09-15T11:51:23.567Z,19.94
2018-09-15T11:53:52.063Z,19.86
2018-09-15T11:56:20.574Z,19.58
2018-09-15T11:58:50.039Z,19.21
2018-09-15T12:01:18.985Z,19.21
2018-09-15T12:03:48.145Z,19.52
2018-09-15T12:06:16.644Z,19.70
2018-09-15T12:08:45.088Z,19.42
2018-09-15T12:11:13.566Z,18.93
2018-09-15T12:13:42.105Z,18.71
2018-09-15T12:16:11.042Z,18.74
2018-09-15T12:18:39.537Z,18.81
2018-09-15T12:21:08.362Z,18.74
2018-09-15T12:23:36.788Z,18.53
2018-09-15T12:26:05.248Z,18.96
2018-09-15T12:28:36.730Z,19.69
2018-09-15T12:31:05.990Z,20.32
2018-09-15T12:33:34.588Z,20.52
2018-09-15T12:36:03.097Z,20.42
2018-09-15T12:38:31.565Z,20.61
2018-09-15T12:41:00.137Z,21.17
2018-09-15T12:43:28.578Z,21.99
2018-09-15T12:45:57.059Z,22.82
2018-09-15T12:48:25.822Z,23.09
2018-09-15T12:50:54.257Z,23.10
2018-09-15T12:53:23.362Z,23.19
2018-09-15T12:55:52.141Z,22.51
2018-09-15T12:58:20.579Z,22.38
2018-09-15T13:00:49.043Z,22.60
2018-09-15T13:03:17.993Z,22.46
2018-09-15T13:05:46.596Z,21.34
2018-09-15T13:08:15.114Z,20.00
2018-09-15T13:10:43.729Z,19.65
2018-09-15T13:13:12.185Z,19.03
2018-09-15T13:15:40.693Z,18.43
2018-09-15T13:18:09.381Z,19.22
2018-09-15T13:20:37.869Z,19.33
2018-09-15T13:23:06.546Z,19.48
2018-09-15T13:25:35.065Z,20.01
2018-09-15T13:28:03.530Z,21.14
2018-09-15T13:30:32.008Z,21.36
2018-09-15T13:33:00.890Z,21.38
2018-09-15T13:35:29.346Z,21.50
2018-09-15T13:37:59.269Z,20.82
2018-09-15T13:40:27.849Z,21.08
2018-09-15T13:42:56.270Z,21.29
2018-09-15T13:45:24.840Z,21.47
2018-09-15T13:47:53.375Z,22.06
2018-09-15T13:50:21.817Z,21.93
2018-09-15T13:52:50.413Z,21.27
2018-09-15T13:55:19.012Z,21.07
2018-09-15T13:57:47.486Z,21.62
2018-09-15T14:00:15.973Z,22.31
2018-09-15T14:02:44.883Z,22.43
2018-09-15T14:05:14.496Z,23.38
2018-09-15T14:07:43.422Z,24.77
2018-09-15T14:10:18.928Z,26.01
2018-09-15T14:12:41.346Z,26.77
2018-09-15T14:15:09.825Z,27.70
2018-09-15T14:17:38.463Z,28.32
2018-09-15T14:20:06.981Z,28.77
2018-09-15T14:22:35.465Z,27.44
2018-09-15T14:25:04.524Z,26.43
2018-09-15T14:27:33.082Z,25.95
2018-09-15T14:30:01.574Z,25.76
2018-09-15T14:32:30.523Z,25.14
2018-09-15T14:34:59.054Z,23.56
2018-09-15T14:37:27.957Z,22.20
2018-09-15T14:39:56.861Z,20.92
2018-09-15T14:42:25.338Z,20.06
2018-09-15T14:44:53.800Z,19.88
2018-09-15T14:47:22.318Z,20.38
2018-09-15T14:49:50.845Z,21.68
2018-09-15T14:52:19.343Z,22.67
2018-09-15T14:54:47.920Z,23.10
2018-09-15T14:57:16.356Z,23.73
2018-09-15T14:59:44.952Z,23.68
2018-09-15T15:02:13.659Z,23.91
2018-09-15T15:04:42.096Z,23.97
2018-09-15T15:07:10.582Z,24.61
2018-09-15T15:09:39.093Z,24.54
2018-09-15T15:12:07.541Z,24.40
2018-09-15T15:14:36.018Z,24.78
2018-09-15T15:17:04.611Z,24.64
2018-09-15T15:19:33.040Z,23.70
2018-09-15T15:22:01.499Z,22.89
2018-09-15T15:24:30.147Z,22.54
2018-09-15T15:26:58.829Z,21.48
2018-09-15T15:29:27.489Z,20.28
2018-09-15T15:31:56.118Z,19.47
2018-09-15T15:34:24.887Z,18.93
2018-09-15T15:36:53.366Z,18.37
2018-09-15T15:39:22.099Z,18.20
2018-09-15T15:41:50.582Z,18.09
2018-09-15T15:44:19.061Z,17.94
2018-09-15T15:46:47.641Z,18.14
2018-09-15T15:49:16.129Z,18.00
2018-09-15T15:51:44.830Z,18.00
2018-09-15T15:54:13.345Z,17.99
2018-09-15T15:56:41.777Z,17.90
2018-09-15T15:59:10.275Z,17.51
2018-09-15T16:01:38.889Z,17.41
2018-09-15T16:04:07.321Z,17.36
2018-09-15T16:06:35.806Z,17.33
2018-09-15T16:09:04.961Z,17.40
2018-09-15T16:11:33.413Z,17.39
2018-09-15T16:14:02.162Z,17.35
2018-09-15T16:16:30.709Z,17.35
2018-09-15T16:18:59.136Z,17.30
2018-09-15T16:21:27.593Z,17.10
2018-09-15T16:24:02.941Z,16.98
2018-09-15T16:26:31.698Z,16.75
2018-09-15T16:29:00.302Z,16.63
2018-09-15T16:31:29.848Z,16.45
2018-09-15T16:33:58.514Z,15.71
2018-09-15T16:36:27.138Z,16.29
2018-09-15T16:38:55.658Z,16.22
2018-09-15T16:41:24.137Z,16.14
2018-09-15T16:43:53.190Z,16.10
2018-09-15T16:46:22.051Z,16.01
2018-09-15T16:48:51.090Z,15.94
2018-09-15T16:51:19.543Z,15.82
2018-09-15T16:53:48.009Z,15.75
2018-09-15T16:56:16.461Z,15.64
2018-09-15T16:58:44.881Z,15.58
2018-09-15T17:01:13.721Z,15.52
2018-09-15T17:03:42.201Z,15.31
2018-09-15T17:06:10.669Z,15.42
2018-09-15T17:08:39.217Z,15.39
2018-09-15T17:11:09.470Z,15.34
2018-09-15T17:13:38.382Z,15.29
2018-09-15T17:16:06.905Z,15.22
2018-09-15T17:18:35.580Z,15.19
2018-09-15T17:21:04.218Z,15.14
2018-09-15T17:23:32.702Z,15.08
2018-09-15T17:26:01.633Z,15.03
2018-09-15T17:28:30.085Z,14.97
2018-09-15T17:30:58.966Z,14.94
2018-09-15T17:33:28.122Z,14.91
2018-09-15T17:35:56.922Z,14.89
2018-09-15T17:38:26.009Z,14.88
2018-09-15T17:40:54.671Z,14.86
2018-09-15T17:43:23.116Z,14.84
2018-09-15T17:45:51.902Z,14.79
2018-09-15T17:48:20.803Z,14.78
2018-09-15T17:50:49.585Z,14.75
2018-09-15T17:53:18.137Z,14.68
2018-09-15T17:55:46.734Z,14.67
2018-09-15T17:58:15.173Z,14.67
2018-09-15T18:00:43.626Z,14.62
2018-09-15T18:03:12.732Z,14.57
2018-09-15T18:05:41.158Z,14.55
2018-09-15T18:08:09.604Z,14.50
2018-09-15T18:10:38.427Z,14.47
2018-09-15T18:13:06.962Z,14.44
2018-09-15T18:15:35.402Z,14.43
2018-09-15T18:18:04.557Z,14.38
2018-09-15T18:20:33.017Z,14.36
2018-09-15T18:23:01.459Z,14.35
2018-09-15T18:25:30.050Z,14.30
2018-09-15T18:27:58.543Z,14.29
2018-09-15T18:30:27.955Z,14.26
2018-09-15T18:32:56.769Z,14.24
2018-09-15T18:35:25.197Z,14.22
2018-09-15T18:37:53.658Z,14.19
2018-09-15T18:40:22.475Z,14.15
2018-09-15T18:42:50.956Z,14.12
2018-09-15T18:45:19.406Z,14.12
2018-09-15T18:47:48.375Z,14.10
2018-09-15T18:50:16.798Z,14.06
2018-09-15T18:52:45.244Z,14.02
2018-09-15T18:55:14.029Z,14.02
2018-09-15T18:57:42.449Z,14.01
2018-09-15T19:00:10.909Z,13.98
2018-09-15T19:02:39.549Z,13.97
2018-09-15T19:05:08.010Z,13.97
2018-09-15T19:07:36.460Z,13.94
2018-09-15T19:10:05.113Z,13.92
2018-09-15T19:12:33.649Z,13.91
2018-09-15T19:15:02.081Z,13.89
2018-09-15T19:17:30.717Z,13.85
2018-09-15T19:19:59.163Z,13.81
2018-09-15T19:22:27.586Z,13.78
2018-09-15T19:24:56.421Z,13.76
2018-09-15T19:27:24.866Z,13.71
2018-09-15T19:29:53.301Z,13.71
2018-09-15T19:32:21.938Z,13.67
2018-09-15T19:34:50.495Z,13.64
2018-09-15T19:37:18.933Z,13.67
2018-09-15T19:39:47.579Z,13.64
2018-09-15T19:42:16.210Z,13.67
2018-09-15T19:44:44.741Z,13.64
2018-09-15T19:47:13.296Z,13.61
2018-09-15T19:49:41.758Z,13.57
2018-09-15T19:52:10.384Z,13.52
2018-09-15T19:54:38.941Z,13.44
2018-09-15T19:57:07.408Z,13.45
2018-09-15T19:59:35.852Z,13.47
2018-09-15T20:02:05.153Z,13.49
2018-09-15T20:04:33.921Z,13.44
2018-09-15T20:07:02.339Z,13.40
2018-09-15T20:09:31.005Z,13.35
2018-09-15T20:11:59.953Z,13.30
2018-09-15T20:14:29.210Z,13.23
2018-09-15T20:16:56.641Z,13.20
2018-09-15T20:19:23.945Z,13.13
2018-09-15T20:21:51.217Z,13.08
2018-09-15T20:24:19.789Z,13.05
2018-09-15T20:26:48.218Z,13.01
2018-09-15T20:29:16.665Z,13.01
2018-09-15T20:31:45.381Z,13.01
2018-09-15T20:34:13.813Z,13.00
2018-09-15T20:36:42.593Z,12.97
2018-09-15T20:39:12.521Z,12.96
2018-09-15T20:41:41.289Z,12.96
2018-09-15T20:44:09.950Z,12.95
2018-09-15T20:46:38.525Z,12.94
2018-09-15T20:49:07.137Z,12.93
2018-09-15T20:51:35.829Z,12.89
2018-09-15T20:54:04.401Z,12.85
2018-09-15T20:56:32.913Z,12.84
2018-09-15T20:59:01.345Z,12.81
2018-09-15T21:01:30.566Z,12.80
2018-09-15T21:03:59.522Z,12.75
2018-09-15T21:06:28.201Z,12.71
2018-09-15T21:08:56.756Z,12.68
2018-09-15T21:11:25.191Z,12.67
2018-09-15T21:13:53.650Z,12.68
2018-09-15T21:16:22.341Z,12.67
2018-09-15T21:18:50.773Z,12.63
2018-09-15T21:21:19.229Z,12.62
2018-09-15T21:23:48.065Z,12.57
2018-09-15T21:26:16.493Z,12.58
2018-09-15T21:28:44.921Z,12.58
2018-09-15T21:31:13.621Z,12.55
2018-09-15T21:33:42.079Z,12.52
2018-09-15T21:36:10.529Z,12.47
2018-09-15T21:38:39.705Z,12.44
2018-09-15T21:41:08.145Z,12.42
2018-09-15T21:43:36.658Z,12.40
2018-09-15T21:46:05.536Z,12.37
2018-09-15T21:48:33.962Z,12.37
2018-09-15T21:51:02.517Z,12.37
2018-09-15T21:53:31.177Z,12.32
2018-09-15T21:55:59.668Z,12.26
2018-09-15T21:58:28.105Z,12.22
2018-09-15T22:01:02.621Z,12.19
2018-09-15T22:03:31.221Z,12.17
2018-09-15T22:06:00.149Z,12.17
2018-09-15T22:08:29.064Z,12.16
2018-09-15T22:10:57.546Z,12.15
2018-09-15T22:13:25.981Z,12.14
2018-09-15T22:15:54.791Z,12.10
2018-09-15T22:18:23.213Z,12.07
2018-09-15T22:20:51.672Z,12.05
2018-09-15T22:23:20.812Z,12.02
2018-09-15T22:25:49.305Z,11.98
2018-09-15T22:28:17.746Z,11.96
2018-09-15T22:30:46.558Z,11.93
2018-09-15T22:33:15.006Z,11.90
2018-09-15T22:35:43.624Z,11.88
2018-09-15T22:38:12.409Z,11.85
2018-09-15T22:40:41.002Z,11.83
2018-09-15T22:43:09.428Z,11.82
2018-09-15T22:45:38.497Z,11.80
2018-09-15T22:48:07.298Z,11.79
2018-09-15T22:50:35.776Z,11.79
2018-09-15T22:53:05.285Z,11.77
2018-09-15T22:55:33.765Z,11.74
2018-09-15T22:58:02.217Z,11.70
2018-09-15T23:00:32.016Z,11.69
2018-09-15T23:03:01.433Z,11.69
2018-09-15T23:05:30.113Z,11.67
2018-09-15T23:07:59.840Z,11.65
2018-09-15T23:10:28.685Z,11.63
2018-09-15T23:12:58.665Z,11.60
2018-09-15T23:15:27.702Z,11.60
2018-09-15T23:17:56.310Z,11.61
2018-09-15T23:20:25.126Z,11.59
2018-09-15T23:22:54.797Z,11.58
2018-09-15T23:25:23.225Z,11.55
2018-09-15T23:27:51.936Z,11.54
2018-09-15T23:30:20.634Z,11.52
2018-09-15T23:32:49.049Z,11.50
2018-09-15T23:35:17.489Z,11.48
2018-09-15T23:37:46.280Z,11.48
2018-09-15T23:40:14.721Z,11.44
2018-09-15T23:42:43.513Z,11.42
2018-09-15T23:45:12.454Z,11.42
2018-09-15T23:47:40.890Z,11.39
2018-09-15T23:50:09.952Z,11.37
2018-09-15T23:52:39.017Z,11.38
2018-09-15T23:55:07.663Z,11.41
2018-09-15T23:57:36.089Z,11.43
